Time;durP1;ratioP1;P1;durP2;ratioP2;P2;SDS_P1;SDS_P2;PMS_P1;PMS_P2;Temp;Humidity;BMP_temperature;BMP_pressure;BME280_temperature;BME280_humidity;BME280_pressure;Samples;Min_cycle;Max_cycle;Signal;HPM_P1;HPM_P2
2022/03/13 00:00:47;;;;;;;14.73;9.15;;;;;;;0.02;53.50;101820.34;5001816;28;20470;-74
2022/03/13 00:03:14;;;;;;;16.80;10.57;;;;;;;0.14;53.19;101821.16;5006834;28;20053;-75
2022/03/13 00:05:42;;;;;;;11.77;8.30;;;;;;;-0.11;53.39;101818.69;5000146;28;20069;-74
2022/03/13 00:08:54;;;;;;;12.65;8.35;;;;;;;0.18;53.52;101824.03;4986887;28;20537;-75
2022/03/13 00:11:19;;;;;;;14.52;10.07;;;;;;;-0.02;53.69;101825.31;4916060;29;20056;-74
2022/03/13 00:13:51;;;;;;;16.35;11.00;;;;;;;0.08;53.56;101813.91;5001647;28;20049;-74
2022/03/13 00:16:18;;;;;;;16.88;11.18;;;;;;;0.13;53.22;101806.47;4994580;28;20053;-74
2022/03/13 00:18:46;;;;;;;14.75;9.70;;;;;;;0.12;53.11;101804.69;5003919;28;20049;-74
2022/03/13 00:21:21;;;;;;;16.35;11.75;;;;;;;-0.13;54.09;101807.38;5000708;28;20117;-74
2022/03/13 00:23:47;;;;;;;12.35;8.90;;;;;;;-0.17;54.36;101801.09;5001560;28;20053;-74
2022/03/13 00:26:15;;;;;;;17.35;10.50;;;;;;;-0.19;53.77;101799.22;5002985;28;20497;-75
2022/03/13 00:28:41;;;;;;;23.85;14.88;;;;;;;0.03;53.96;101801.53;5006419;28;20030;-75
2022/03/13 00:31:06;;;;;;;15.48;8.05;;;;;;;0.05;53.88;101795.66;5004931;28;20030;-74
2022/03/13 00:33:33;;;;;;;28.90;11.15;;;;;;;-0.03;53.91;101796.84;5003192;28;20087;-75
2022/03/13 00:35:59;;;;;;;21.60;10.85;;;;;;;0.04;53.78;101788.69;4997099;28;20046;-75
2022/03/13 00:38:25;;;;;;;17.65;9.52;;;;;;;0.21;53.35;101794.94;4999709;28;20043;-74
2022/03/13 00:40:53;;;;;;;17.52;10.40;;;;;;;0.02;53.61;101790.28;5004981;28;20050;-75
2022/03/13 00:43:19;;;;;;;21.90;14.55;;;;;;;0.05;53.67;101792.16;4984277;28;20045;-74
2022/03/13 00:45:45;;;;;;;17.17;9.73;;;;;;;0.08;54.04;101787.22;5004397;28;20080;-74
2022/03/13 00:48:12;;;;;;;15.30;8.93;;;;;;;-0.25;54.83;101789.41;5001976;28;20053;-74
2022/03/13 00:50:38;;;;;;;15.50;9.75;;;;;;;-0.36;54.87;101783.53;5004446;28;20490;-75
2022/03/13 00:53:05;;;;;;;21.98;14.25;;;;;;;-0.14;54.18;101772.03;4987993;28;20044;-74
2022/03/13 00:55:30;;;;;;;18.08;10.00;;;;;;;-0.14;54.57;101783.25;5003495;28;20069;-74
2022/03/13 00:57:56;;;;;;;17.63;10.63;;;;;;;-0.14;54.40;101779.75;5006076;28;20366;-74
2022/03/13 01:00:22;;;;;;;17.45;10.45;;;;;;;0.05;53.71;101780.19;4997360;28;20459;-74
2022/03/13 01:02:48;;;;;;;14.18;9.10;;;;;;;-0.15;54.49;101768.56;5006225;28;20050;-74
2022/03/13 01:05:21;;;;;;;15.05;9.25;;;;;;;-0.01;53.74;101769.44;5000800;28;20048;-74
2022/03/13 01:07:47;;;;;;;39.65;11.02;;;;;;;0.19;53.57;101773.31;4998937;28;20073;-74
2022/03/13 01:10:12;;;;;;;15.90;9.90;;;;;;;0.11;53.35;101777.09;5000268;28;20038;-75
2022/03/13 01:12:38;;;;;;;17.92;11.43;;;;;;;0.11;53.57;101765.06;5008403;28;20146;-74
2022/03/13 01:15:14;;;;;;;15.77;10.00;;;;;;;-0.05;54.17;101758.06;4987535;28;20042;-73
2022/03/13 01:17:46;;;;;;;16.95;9.82;;;;;;;-0.26;54.23;101772.13;4992559;28;20462;-74
2022/03/13 01:20:21;;;;;;;15.10;11.10;;;;;;;0.04;53.63;101756.84;4998750;28;20042;-73
2022/03/13 01:22:47;;;;;;;16.58;10.55;;;;;;;-0.04;53.99;101736.59;4982283;28;20048;-74
2022/03/13 01:25:13;;;;;;;24.52;12.70;;;;;;;0.24;53.61;101764.19;4986569;28;20406;-74
2022/03/13 01:27:39;;;;;;;16.55;9.70;;;;;;;0.20;53.59;101757.03;5003948;28;20045;-74
2022/03/13 01:30:05;;;;;;;22.98;15.40;;;;;;;0.12;53.58;101755.66;5005809;28;20080;-74
2022/03/13 01:32:32;;;;;;;12.30;8.13;;;;;;;-0.18;53.83;101755.47;4996184;28;20057;-73
2022/03/13 01:34:58;;;;;;;17.73;11.35;;;;;;;0.09;53.59;101740.84;5004967;28;20050;-73
2022/03/13 01:37:39;;;;;;;18.60;9.57;;;;;;;0.18;53.45;101740.56;4994736;28;20084;-74
2022/03/13 01:40:10;;;;;;;17.55;10.40;;;;;;;-0.07;53.80;101744.16;4995396;28;20084;-74
2022/03/13 01:42:40;;;;;;;16.25;10.13;;;;;;;-0.08;54.09;101747.53;5004556;28;20057;-74
2022/03/13 01:45:10;;;;;;;22.73;15.10;;;;;;;0.13;53.75;101735.09;5008383;28;20065;-74
2022/03/13 01:47:35;;;;;;;16.05;9.75;;;;;;;-0.15;54.14;101735.03;5008705;28;20130;-74
2022/03/13 01:50:01;;;;;;;20.70;9.27;;;;;;;0.18;53.22;101732.81;4993030;28;20046;-75
2022/03/13 01:52:44;;;;;;;20.08;11.38;;;;;;;-0.10;54.57;101738.78;4996595;28;20038;-74
2022/03/13 01:55:10;;;;;;;21.60;11.10;;;;;;;-0.01;53.89;101738.50;5011618;28;20042;-74
2022/03/13 01:57:39;;;;;;;22.00;11.82;;;;;;;0.05;54.48;101727.66;5011975;28;20030;-75
2022/03/13 02:00:09;;;;;;;18.88;11.10;;;;;;;0.03;53.75;101739.59;5010556;28;20032;-75
2022/03/13 02:02:36;;;;;;;18.48;11.35;;;;;;;0.24;53.32;101730.63;5009827;28;20046;-74
2022/03/13 02:05:33;;;;;;;18.27;11.05;;;;;;;0.34;53.30;101732.97;4993836;28;20049;-75
2022/03/13 02:08:00;;;;;;;17.33;11.52;;;;;;;0.25;53.64;101740.16;5003811;28;20041;-74
2022/03/13 02:10:26;;;;;;;26.98;16.98;;;;;;;0.13;53.98;101726.47;5012428;28;20103;-74
2022/03/13 02:12:51;;;;;;;19.83;11.65;;;;;;;0.03;54.32;101731.84;4997093;28;20021;-74
2022/03/13 02:15:17;;;;;;;20.58;9.60;;;;;;;0.24;54.03;101742.66;5030755;28;20033;-75
2022/03/13 02:17:42;;;;;;;14.68;8.68;;;;;;;0.13;54.20;101734.22;5024349;28;20077;-74
2022/03/13 02:20:25;;;;;;;16.63;10.48;;;;;;;0.30;54.28;101730.09;5009956;28;20034;-74
2022/03/13 02:22:51;;;;;;;16.35;10.75;;;;;;;0.32;54.15;101731.97;4999445;28;20042;-74
2022/03/13 02:25:21;;;;;;;18.92;15.48;;;;;;;0.30;53.89;101737.84;5011150;28;20042;-74
2022/03/13 02:27:46;;;;;;;17.35;10.75;;;;;;;0.21;53.65;101722.66;5009184;28;20051;-74
2022/03/13 02:30:12;;;;;;;25.73;12.05;;;;;;;0.28;53.80;101740.34;5015332;28;20350;-74
2022/03/13 02:32:37;;;;;;;19.05;10.10;;;;;;;0.09;54.55;101743.44;5008705;28;20500;-75
2022/03/13 02:35:03;;;;;;;17.83;10.90;;;;;;;0.30;53.69;101738.72;5009395;28;20375;-74
2022/03/13 02:38:23;;;;;;;19.75;10.95;;;;;;;0.18;54.30;101738.84;5011346;28;20179;-74
2022/03/13 02:40:49;;;;;;;21.20;11.82;;;;;;;0.15;54.72;101742.94;4998165;28;20034;-74
2022/03/13 02:43:16;;;;;;;20.48;15.82;;;;;;;0.22;55.47;101732.22;5004116;28;20053;-74
2022/03/13 02:45:41;;;;;;;26.20;15.95;;;;;;;0.20;54.91;101741.53;4998983;28;20070;-73
2022/03/13 02:48:08;;;;;;;20.45;11.27;;;;;;;0.04;54.95;101737.09;5006428;28;20068;-73
2022/03/13 02:50:34;;;;;;;16.77;11.55;;;;;;;0.16;54.92;101731.81;5014492;28;20045;-75
2022/03/13 02:53:00;;;;;;;19.25;12.57;;;;;;;0.22;54.61;101733.91;5019841;28;20042;-76
2022/03/13 02:56:10;;;;;;;22.48;15.93;;;;;;;0.06;55.77;101744.94;5010531;28;20378;-75
2022/03/13 02:58:36;;;;;;;22.73;15.32;;;;;;;0.15;55.99;101736.09;5011691;28;20042;-76
2022/03/13 03:01:02;;;;;;;20.45;13.55;;;;;;;0.12;55.46;101737.59;5011228;28;20042;-74
2022/03/13 03:07:38;;;;;;;22.38;11.63;;;;;;;0.30;55.16;101743.91;5008799;28;20092;-75
2022/03/13 03:10:05;;;;;;;18.30;12.23;;;;;;;-0.15;55.93;101744.47;5008720;28;20061;-73
2022/03/13 03:12:33;;;;;;;26.95;16.70;;;;;;;0.16;56.03;101736.97;5030427;28;20040;-75
2022/03/13 03:14:59;;;;;;;17.38;11.30;;;;;;;0.11;55.85;101736.69;4992665;28;20050;-73
2022/03/13 03:17:24;;;;;;;23.27;12.02;;;;;;;0.18;55.95;101732.81;5018430;28;20060;-74
2022/03/13 03:19:49;;;;;;;15.70;11.82;;;;;;;0.27;55.20;101735.97;5009217;28;20049;-74
2022/03/13 03:22:15;;;;;;;22.77;13.15;;;;;;;0.08;56.54;101717.56;5013252;28;20053;-75
2022/03/13 03:24:41;;;;;;;20.75;11.80;;;;;;;0.01;56.31;101728.28;5011154;28;20036;-73
2022/03/13 03:27:07;;;;;;;22.05;16.70;;;;;;;0.10;56.82;101724.59;5013781;28;20022;-75
2022/03/13 03:29:33;;;;;;;21.20;15.65;;;;;;;0.16;55.91;101731.81;5011830;28;20038;-74
2022/03/13 03:32:43;;;;;;;15.38;10.57;;;;;;;0.22;57.03;101729.63;5017093;28;20061;-75
2022/03/13 03:35:25;;;;;;;21.23;12.93;;;;;;;0.23;56.26;101720.19;5008395;28;20038;-75
2022/03/13 03:37:53;;;;;;;23.38;15.48;;;;;;;-0.10;56.84;101723.31;4994746;28;20645;-74
2022/03/13 03:40:22;;;;;;;18.40;11.15;;;;;;;-0.01;57.11;101726.47;5000157;28;20040;-74
2022/03/13 03:42:48;;;;;;;20.52;13.80;;;;;;;0.07;56.48;101715.75;4999779;28;20072;-74
2022/03/13 03:45:17;;;;;;;18.00;10.90;;;;;;;0.10;56.74;101722.00;4993472;28;20030;-74
2022/03/13 03:47:46;;;;;;;21.95;13.52;;;;;;;0.04;57.92;101715.56;4995554;28;20046;-74
2022/03/13 03:50:12;;;;;;;26.10;19.13;;;;;;;0.18;57.06;101725.06;5002494;28;20046;-76
2022/03/13 03:52:38;;;;;;;17.17;11.43;;;;;;;0.18;56.65;101723.38;4998455;28;20081;-74
2022/03/13 03:55:58;;;;;;;19.40;12.45;;;;;;;-0.07;57.57;101720.94;4995696;28;20038;-74
2022/03/13 03:58:23;;;;;;;21.75;11.88;;;;;;;0.07;56.66;101727.00;5006351;28;20050;-74
2022/03/13 04:00:49;;;;;;;21.02;13.25;;;;;;;-0.03;56.97;101727.19;5000002;28;20026;-74
2022/03/13 04:03:15;;;;;;;21.25;11.98;;;;;;;-0.02;57.10;101716.97;4997766;28;20461;-74
2022/03/13 04:06:01;;;;;;;19.05;12.57;;;;;;;0.06;58.06;101726.88;4997599;28;20378;-75
2022/03/13 04:08:29;;;;;;;23.55;14.20;;;;;;;-0.07;57.37;101732.94;5029459;28;20040;-75
2022/03/13 04:10:55;;;;;;;24.08;17.35;;;;;;;0.02;57.10;101724.88;5009396;28;20042;-75
2022/03/13 04:13:21;;;;;;;18.63;11.25;;;;;;;0.22;57.84;101716.72;5011224;28;20057;-75
2022/03/13 04:15:46;;;;;;;25.33;17.55;;;;;;;0.28;57.44;101709.38;5013070;28;20030;-75
2022/03/13 04:18:15;;;;;;;14.38;10.43;;;;;;;0.23;56.66;101720.19;5012244;28;20025;-75
2022/03/13 04:20:40;;;;;;;16.35;10.88;;;;;;;0.03;57.12;101708.63;5012506;28;20550;-75
2022/03/13 04:23:06;;;;;;;23.77;17.45;;;;;;;0.26;57.60;101718.72;5009626;28;20057;-75
2022/03/13 04:25:31;;;;;;;19.27;11.40;;;;;;;0.31;56.65;101700.94;5008383;28;20371;-73
2022/03/13 04:27:57;;;;;;;25.30;11.38;;;;;;;0.50;55.61;101690.94;5005662;28;20105;-74
2022/03/13 04:30:26;;;;;;;18.58;12.52;;;;;;;0.23;56.72;101707.28;5006626;28;20017;-74
2022/03/13 04:32:52;;;;;;;18.60;11.68;;;;;;;0.24;56.58;101719.41;5011898;28;20049;-74
2022/03/13 04:35:18;;;;;;;21.92;13.93;;;;;;;0.30;57.10;101730.09;5011183;28;20042;-75
2022/03/13 04:37:43;;;;;;;26.30;18.10;;;;;;;0.28;56.42;101722.28;5013646;28;20045;-75
2022/03/13 04:40:10;;;;;;;20.35;11.43;;;;;;;0.39;56.79;101734.16;5013774;28;20034;-75
2022/03/13 04:42:35;;;;;;;18.08;11.07;;;;;;;0.13;56.99;101740.25;5029433;28;20030;-74
2022/03/13 04:45:02;;;;;;;19.55;13.40;;;;;;;0.25;57.05;101737.56;5013015;28;20112;-75
2022/03/13 04:47:31;;;;;;;19.15;12.50;;;;;;;-0.08;58.00;101741.47;5012704;28;20045;-74
2022/03/13 04:49:57;;;;;;;20.77;16.13;;;;;;;0.06;56.92;101750.09;5001684;28;20390;-74
2022/03/13 04:52:22;;;;;;;17.15;12.07;;;;;;;0.20;56.68;101745.00;5011813;28;20068;-75
2022/03/13 04:54:57;;;;;;;17.17;10.60;;;;;;;0.34;57.12;101753.63;5010845;28;20025;-74
2022/03/13 04:57:31;;;;;;;20.30;15.55;;;;;;;0.08;56.59;101757.16;5027776;28;20076;-75
2022/03/13 04:59:57;;;;;;;20.58;12.32;;;;;;;0.35;56.64;101737.38;5033463;28;20034;-75
2022/03/13 05:02:22;;;;;;;26.23;16.13;;;;;;;0.17;56.77;101755.16;5011826;28;20045;-73
2022/03/13 05:04:48;;;;;;;31.60;18.98;;;;;;;0.26;56.84;101748.78;5006732;28;20040;-75
2022/03/13 05:07:13;;;;;;;19.55;11.00;;;;;;;0.36;56.82;101738.25;4991133;28;20049;-74
2022/03/13 05:09:39;;;;;;;22.73;15.70;;;;;;;0.11;56.69;101752.16;5009977;28;20103;-75
2022/03/13 05:12:07;;;;;;;16.85;12.15;;;;;;;0.07;56.97;101746.72;5010750;28;20475;-75
2022/03/13 05:14:32;;;;;;;17.60;11.23;;;;;;;0.16;57.31;101765.38;4989780;28;20034;-75
2022/03/13 05:16:58;;;;;;;14.05;11.00;;;;;;;0.04;57.71;101751.69;5005846;28;20049;-74
2022/03/13 05:19:24;;;;;;;17.50;10.95;;;;;;;0.35;56.44;101755.44;5000785;28;20038;-75
2022/03/13 05:21:49;;;;;;;20.40;14.20;;;;;;;0.47;56.93;101759.56;5007121;28;20076;-74
2022/03/13 05:24:14;;;;;;;15.80;11.18;;;;;;;0.27;56.65;101748.88;5002540;28;20022;-75
2022/03/13 05:26:40;;;;;;;20.50;13.18;;;;;;;0.09;57.00;101760.59;5009600;28;20049;-74
2022/03/13 05:29:05;;;;;;;35.40;17.15;;;;;;;0.33;57.09;101761.31;4996157;28;20036;-75
2022/03/13 05:31:31;;;;;;;27.63;18.05;;;;;;;0.38;56.09;101759.91;5002071;28;20050;-74
2022/03/13 05:34:07;;;;;;;26.33;12.63;;;;;;;0.68;55.58;101763.50;5000437;28;20018;-75
2022/03/13 05:36:32;;;;;;;20.30;12.13;;;;;;;0.55;55.05;101753.19;5012805;28;20048;-74
2022/03/13 05:38:58;;;;;;;17.73;12.88;;;;;;;0.35;55.84;101762.25;5008909;28;20050;-74
2022/03/13 05:41:25;;;;;;;23.55;12.00;;;;;;;0.73;55.50;101758.59;5005034;28;20099;-75
2022/03/13 05:43:51;;;;;;;25.02;14.05;;;;;;;0.45;56.19;101753.44;4997799;28;20038;-75
2022/03/13 05:46:17;;;;;;;21.00;13.35;;;;;;;0.62;55.29;101745.91;5005379;28;20046;-75
2022/03/13 05:48:42;;;;;;;35.22;16.73;;;;;;;0.26;56.77;101770.34;4990680;28;20026;-74
2022/03/13 05:51:08;;;;;;;25.20;19.60;;;;;;;0.77;56.17;101758.91;5011002;28;20057;-75
2022/03/13 05:53:34;;;;;;;17.85;12.38;;;;;;;1.02;55.27;101766.41;5010849;28;20038;-74
2022/03/13 05:55:59;;;;;;;19.80;13.43;;;;;;;0.83;54.06;101769.59;5006004;28;20049;-74
2022/03/13 05:58:25;;;;;;;24.67;18.98;;;;;;;0.34;55.56;101782.03;4997835;28;20049;-74
2022/03/13 06:01:04;;;;;;;18.92;13.40;;;;;;;0.79;54.38;101772.78;5012477;28;20030;-77
2022/03/13 06:03:30;;;;;;;20.45;13.55;;;;;;;0.90;55.43;101775.13;5014435;28;20419;-76
2022/03/13 06:05:56;;;;;;;27.42;18.67;;;;;;;1.13;54.26;101786.88;5015686;28;20618;-74
2022/03/13 06:08:22;;;;;;;22.80;14.95;;;;;;;1.26;53.99;101772.19;4991291;28;20093;-76
2022/03/13 06:10:48;;;;;;;23.00;18.55;;;;;;;1.31;54.23;101784.47;4999347;28;20568;-75
2022/03/13 06:13:14;;;;;;;26.77;12.95;;;;;;;1.43;52.43;101780.94;5007448;28;20038;-73
2022/03/13 06:15:39;;;;;;;18.30;12.75;;;;;;;1.39;52.18;101785.84;4994841;28;20374;-75
2022/03/13 06:18:04;;;;;;;34.33;17.65;;;;;;;1.28;51.95;101795.53;5010911;28;20046;-75
2022/03/13 06:20:45;;;;;;;24.60;13.13;;;;;;;1.56;52.51;101789.41;5012061;28;20038;-75
2022/03/13 06:23:13;;;;;;;27.05;19.75;;;;;;;1.91;52.30;101783.69;5007952;28;20057;-73
2022/03/13 06:25:39;;;;;;;22.63;17.45;;;;;;;1.78;51.03;101797.63;5011653;28;20474;-76
2022/03/13 06:28:04;;;;;;;20.50;13.25;;;;;;;1.90;50.35;101787.97;4993566;28;20112;-76
2022/03/13 06:30:31;;;;;;;23.67;13.80;;;;;;;2.07;48.90;101795.81;4996983;28;20489;-76
2022/03/13 06:32:56;;;;;;;26.42;17.17;;;;;;;2.09;50.10;101795.09;5013664;28;20037;-76
2022/03/13 06:35:23;;;;;;;26.05;16.20;;;;;;;2.10;50.06;101788.22;5014158;28;20442;-76
2022/03/13 06:37:50;;;;;;;22.80;13.20;;;;;;;2.22;49.50;101793.19;5004628;28;20069;-75
2022/03/13 06:40:20;;;;;;;25.67;17.92;;;;;;;2.40;48.86;101791.63;4990352;28;20112;-75
2022/03/13 06:42:48;;;;;;;28.25;18.70;;;;;;;2.10;48.15;101801.16;5003817;28;20034;-75
2022/03/13 06:45:15;;;;;;;28.80;17.23;;;;;;;2.31;49.15;101794.59;5021649;28;20033;-75
2022/03/13 06:47:46;;;;;;;24.65;16.80;;;;;;;1.87;49.67;101789.47;5023331;28;20072;-75
2022/03/13 06:50:17;;;;;;;28.38;17.00;;;;;;;1.61;49.66;101796.63;5024601;28;20041;-75
2022/03/13 06:52:44;;;;;;;33.28;20.05;;;;;;;2.00;49.58;101802.34;5019633;28;20037;-75
2022/03/13 06:55:13;;;;;;;26.38;18.05;;;;;;;2.19;47.74;101804.25;5020220;28;20033;-74
2022/03/13 06:57:39;;;;;;;24.77;19.00;;;;;;;2.09;49.18;101802.84;5017167;28;20031;-75
2022/03/13 07:00:12;;;;;;;27.52;19.33;;;;;;;2.43;47.92;101802.16;5025226;28;20042;-75
2022/03/13 07:02:38;;;;;;;17.98;12.75;;;;;;;2.27;49.04;101800.44;5004345;28;20037;-74
2022/03/13 07:05:04;;;;;;;27.60;20.52;;;;;;;2.02;49.52;101798.13;5025126;28;20037;-74
2022/03/13 07:07:30;;;;;;;23.30;18.92;;;;;;;2.14;49.19;101790.16;5023883;28;20411;-75
2022/03/13 07:09:57;;;;;;;28.45;22.20;;;;;;;2.05;48.79;101787.94;5023935;28;20099;-75
2022/03/13 07:12:23;;;;;;;26.00;19.35;;;;;;;2.03;48.93;101793.84;5020347;28;20485;-74
2022/03/13 07:14:49;;;;;;;25.10;18.17;;;;;;;2.59;48.35;101795.22;5023088;28;20033;-76
2022/03/13 07:17:16;;;;;;;31.02;21.42;;;;;;;2.63;48.39;101785.13;5009271;28;20112;-75
2022/03/13 07:19:43;;;;;;;23.75;16.85;;;;;;;3.23;46.10;101792.56;5021153;28;20041;-75
2022/03/13 07:22:13;;;;;;;20.17;14.63;;;;;;;2.98;45.06;101803.38;5016870;28;20037;-75
2022/03/13 07:24:41;;;;;;;26.35;17.75;;;;;;;3.38;45.55;101795.97;4995235;28;20382;-74
2022/03/13 07:27:07;;;;;;;25.13;17.20;;;;;;;3.65;45.58;101799.06;5008532;28;20499;-74
2022/03/13 07:29:32;;;;;;;24.10;13.57;;;;;;;3.64;45.07;101799.00;4996384;28;20073;-73
2022/03/13 07:31:57;;;;;;;24.80;16.95;;;;;;;3.80;43.76;101793.78;5005978;28;20070;-72
2022/03/13 07:34:24;;;;;;;24.65;16.50;;;;;;;3.69;43.53;101782.84;5006179;28;20072;-73
2022/03/13 07:36:51;;;;;;;25.27;16.45;;;;;;;4.00;43.14;101792.13;5003456;28;20088;-73
2022/03/13 07:39:21;;;;;;;26.85;16.25;;;;;;;4.15;42.97;101790.28;5007335;28;20045;-73
2022/03/13 07:41:47;;;;;;;32.33;20.30;;;;;;;4.13;42.07;101780.66;5003852;28;20096;-72
2022/03/13 07:44:12;;;;;;;27.67;16.50;;;;;;;3.35;41.64;101794.13;5005371;28;20477;-75
2022/03/13 07:46:38;;;;;;;28.50;19.48;;;;;;;4.16;41.42;101778.19;5010925;28;20034;-79
2022/03/13 07:49:03;;;;;;;31.00;18.15;;;;;;;4.17;41.33;101790.38;5007783;28;20061;-77
2022/03/13 07:51:29;;;;;;;24.02;17.88;;;;;;;4.00;39.96;101794.72;4995828;28;20474;-78
2022/03/13 07:53:54;;;;;;;24.80;16.17;;;;;;;3.24;41.49;101781.41;4984518;28;20038;-78
2022/03/13 07:56:21;;;;;;;22.63;16.83;;;;;;;3.97;41.25;101781.59;5014234;28;20033;-78
2022/03/13 07:58:46;;;;;;;27.65;17.73;;;;;;;4.39;41.34;101785.38;5009717;28;20034;-76
2022/03/13 08:01:12;;;;;;;28.75;19.70;;;;;;;3.48;41.91;101799.94;5003381;28;20112;-80
2022/03/13 08:03:38;;;;;;;30.23;19.38;;;;;;;4.12;41.29;101805.75;5031200;28;20116;-78
2022/03/13 08:06:05;;;;;;;46.20;20.88;;;;;;;4.32;41.40;101792.81;5024892;28;20064;-75
2022/03/13 08:08:30;;;;;;;28.77;19.60;;;;;;;4.47;41.80;101784.84;5009363;28;20050;-78
2022/03/13 08:10:57;;;;;;;31.83;17.67;;;;;;;4.75;40.66;101793.13;5015039;28;20073;-74
2022/03/13 08:13:24;;;;;;;24.17;18.17;;;;;;;4.35;40.11;101800.75;5016857;28;20069;-76
2022/03/13 08:15:49;;;;;;;27.48;17.20;;;;;;;3.81;40.48;101809.41;5004580;28;20042;-75
2022/03/13 08:18:15;;;;;;;31.30;16.20;;;;;;;3.29;39.94;101803.28;5013815;28;20030;-76
2022/03/13 08:22:17;;;;;;;26.17;17.25;;;;;;;4.04;40.78;101786.28;5045211;28;20612;-75
2022/03/13 08:24:43;;;;;;;29.38;18.52;;;;;;;4.25;39.95;101799.41;5030243;28;20120;-76
2022/03/13 08:27:08;;;;;;;26.48;18.02;;;;;;;4.45;40.21;101805.59;5027040;28;20037;-76
2022/03/13 08:29:34;;;;;;;25.92;18.48;;;;;;;3.97;40.44;101807.56;5010651;28;20050;-76
2022/03/13 08:31:59;;;;;;;30.20;19.38;;;;;;;4.19;40.42;101805.22;5010083;28;20038;-76
2022/03/13 08:34:28;;;;;;;24.88;17.65;;;;;;;4.72;40.44;101792.97;5022898;28;20045;-75
2022/03/13 08:36:53;;;;;;;30.05;20.27;;;;;;;4.90;39.94;101790.31;5028216;28;20121;-75
2022/03/13 08:39:19;;;;;;;23.08;15.32;;;;;;;4.85;39.93;101803.13;5026852;28;20369;-76
2022/03/13 08:41:44;;;;;;;19.35;14.38;;;;;;;5.07;39.94;101809.28;5042581;28;20076;-74
2022/03/13 08:44:10;;;;;;;20.63;12.70;;;;;;;4.08;40.82;101805.53;5026258;28;20034;-75
2022/03/13 08:46:35;;;;;;;16.85;13.10;;;;;;;4.88;40.38;101798.88;5027284;28;20164;-77
2022/03/13 08:49:01;;;;;;;18.42;13.85;;;;;;;5.07;40.99;101810.16;5027399;28;20041;-74
2022/03/13 08:51:27;;;;;;;25.02;14.48;;;;;;;4.92;40.51;101800.81;5030379;28;20030;-74
2022/03/13 08:53:53;;;;;;;21.02;14.02;;;;;;;4.20;41.37;101814.78;5036351;28;20037;-74
2022/03/13 08:56:20;;;;;;;24.70;16.83;;;;;;;5.02;41.14;101813.38;5036645;28;20041;-75
2022/03/13 08:58:45;;;;;;;28.65;18.33;;;;;;;4.98;40.33;101801.94;5028200;28;20078;-74
2022/03/13 09:01:12;;;;;;;26.95;19.70;;;;;;;5.14;40.29;101807.84;5031078;28;20046;-75
2022/03/13 09:03:40;;;;;;;24.05;16.20;;;;;;;5.05;39.31;101811.81;5028615;28;20401;-75
2022/03/13 09:06:11;;;;;;;22.73;16.15;;;;;;;3.85;41.05;101809.56;5025907;28;20166;-75
2022/03/13 09:08:37;;;;;;;23.45;18.42;;;;;;;4.45;40.82;101802.97;5039147;28;20397;-75
2022/03/13 09:11:02;;;;;;;26.52;18.40;;;;;;;4.81;40.98;101784.69;5045602;28;20021;-73
2022/03/13 09:13:27;;;;;;;20.45;14.65;;;;;;;5.28;39.34;101799.81;5013054;28;20498;-75
2022/03/13 09:15:53;;;;;;;22.42;16.20;;;;;;;5.23;39.03;101803.06;5006866;28;20033;-75
2022/03/13 09:18:18;;;;;;;25.08;14.85;;;;;;;5.03;39.11;101799.56;5023021;28;20032;-75
2022/03/13 09:20:44;;;;;;;17.45;12.93;;;;;;;4.71;39.79;101790.31;5024010;28;20046;-76
2022/03/13 09:23:10;;;;;;;20.55;14.48;;;;;;;5.11;39.52;101785.19;5035501;28;20525;-77
2022/03/13 09:25:36;;;;;;;26.90;15.75;;;;;;;5.59;39.23;101789.84;5026192;28;20049;-75
2022/03/13 09:28:03;;;;;;;17.77;12.85;;;;;;;5.66;38.74;101794.47;5025362;28;20791;-75
2022/03/13 09:30:28;;;;;;;21.02;12.13;;;;;;;4.58;39.69;101787.13;5025466;28;20024;-75
2022/03/13 09:32:54;;;;;;;22.30;12.38;;;;;;;4.48;39.95;101791.84;5018164;28;20118;-75
2022/03/13 09:35:19;;;;;;;21.75;13.30;;;;;;;5.36;40.66;101791.44;5011178;28;20057;-75
2022/03/13 09:37:45;;;;;;;29.95;16.30;;;;;;;5.84;39.24;101790.03;5021179;28;20423;-75
2022/03/13 09:40:12;;;;;;;24.27;16.30;;;;;;;5.59;39.34;101789.84;5013291;28;20049;-75
2022/03/13 09:42:38;;;;;;;23.88;17.05;;;;;;;5.95;38.42;101789.63;5011396;28;20025;-76
2022/03/13 09:45:04;;;;;;;23.67;15.57;;;;;;;6.02;38.10;101794.28;5013556;28;20609;-76
2022/03/13 09:47:30;;;;;;;19.50;14.95;;;;;;;6.08;38.18;101771.94;5013352;28;20050;-76
2022/03/13 09:50:44;;;;;;;14.63;11.82;;;;;;;6.05;37.05;101789.19;5013510;28;20042;-76
2022/03/13 09:53:10;;;;;;;16.40;12.73;;;;;;;6.19;36.89;101769.78;5002075;28;20481;-76
2022/03/13 09:55:36;;;;;;;19.35;12.35;;;;;;;6.42;37.67;101778.50;5013232;28;20046;-76
2022/03/13 09:58:01;;;;;;;19.45;13.73;;;;;;;6.65;38.32;101771.56;5014637;28;20068;-75
2022/03/13 10:01:13;;;;;;;22.05;16.35;;;;;;;6.13;37.32;101782.56;5014341;28;20084;-75
2022/03/13 10:03:39;;;;;;;22.67;14.25;;;;;;;5.44;38.93;101788.38;5012716;28;20140;-75
2022/03/13 10:06:04;;;;;;;25.52;13.73;;;;;;;5.54;37.99;101784.44;5012697;28;20355;-75
2022/03/13 10:08:32;;;;;;;19.83;14.93;;;;;;;5.93;37.66;101787.81;5012817;28;20134;-75
2022/03/13 10:10:59;;;;;;;18.80;12.75;;;;;;;5.54;37.93;101771.41;5011450;28;20128;-75
2022/03/13 10:13:35;;;;;;;22.58;14.50;;;;;;;6.12;38.32;101772.97;5013154;28;20038;-75
2022/03/13 10:16:02;;;;;;;20.02;13.18;;;;;;;5.57;39.38;101766.38;5011242;28;20052;-74
2022/03/13 10:18:27;;;;;;;23.17;14.95;;;;;;;5.68;39.69;101758.97;5017699;28;20172;-75
2022/03/13 10:20:53;;;;;;;24.83;15.20;;;;;;;6.23;39.27;101749.97;5030093;28;20057;-75
2022/03/13 10:24:14;;;;;;;15.90;12.63;;;;;;;6.07;37.53;101772.78;5029913;28;20045;-75
2022/03/13 10:26:40;;;;;;;17.85;13.88;;;;;;;5.61;40.88;101754.34;5012195;28;21364;-75
2022/03/13 10:29:29;;;;;;;16.95;12.48;;;;;;;5.00;39.56;101765.59;5012831;28;20069;-75
2022/03/13 10:32:36;;;;;;;14.70;11.38;;;;;;;5.18;39.07;101768.13;4993534;28;20050;-74
2022/03/13 10:35:02;;;;;;;16.30;11.73;;;;;;;5.41;39.91;101766.53;4992080;28;20865;-74
2022/03/13 10:37:43;;;;;;;15.70;11.68;;;;;;;5.55;38.32;101765.41;4992177;28;20129;-75
2022/03/13 10:40:18;;;;;;;16.50;12.50;;;;;;;5.58;38.38;101764.66;5009288;28;20081;-75
2022/03/13 10:42:43;;;;;;;15.38;12.20;;;;;;;5.56;39.41;101750.66;5011056;28;20390;-75
2022/03/13 10:45:15;;;;;;;23.48;18.48;;;;;;;5.07;40.69;101749.44;5011347;28;20064;-73
2022/03/13 10:47:41;;;;;;;30.02;21.58;;;;;;;5.35;39.89;101767.16;5023485;28;20045;-76
2022/03/13 10:50:06;;;;;;;28.60;22.30;;;;;;;5.56;39.55;101763.69;5017111;28;20116;-76
2022/03/13 10:52:36;;;;;;;22.98;15.18;;;;;;;5.55;39.03;101765.41;5011236;28;20034;-72
2022/03/13 10:55:24;;;;;;;20.50;14.45;;;;;;;5.88;38.95;101750.28;5011836;28;20042;-75
2022/03/13 10:57:54;;;;;;;61.70;38.80;;;;;;;5.82;39.95;101754.34;5010167;28;20481;-73
2022/03/13 11:00:23;;;;;;;31.30;24.33;;;;;;;5.71;39.80;101757.41;5016028;28;20097;-76
2022/03/13 11:02:49;;;;;;;28.17;20.85;;;;;;;5.41;40.51;101761.34;5031485;28;20045;-75
2022/03/13 11:05:15;;;;;;;33.92;24.75;;;;;;;5.35;41.55;101754.13;5010910;28;20041;-74
2022/03/13 11:07:41;;;;;;;23.88;18.27;;;;;;;5.91;39.10;101750.41;5011430;28;20389;-75
2022/03/13 11:10:09;;;;;;;20.27;15.85;;;;;;;5.45;40.97;101747.59;5011279;28;20121;-75
2022/03/13 11:13:22;;;;;;;16.15;12.23;;;;;;;5.85;39.03;101762.28;5009826;28;20454;-76
2022/03/13 11:15:48;;;;;;;20.73;13.02;;;;;;;6.24;39.30;101743.91;5021390;28;20042;-76
2022/03/13 11:18:18;;;;;;;12.10;9.25;;;;;;;6.15;38.22;101757.44;5031243;28;20518;-74
2022/03/13 11:20:47;;;;;;;19.00;9.13;;;;;;;6.03;40.03;101743.94;5011928;28;20050;-74
2022/03/13 11:23:12;;;;;;;13.13;9.13;;;;;;;6.10;38.83;101744.25;5010664;28;20050;-75
2022/03/13 11:25:38;;;;;;;16.05;10.25;;;;;;;6.10;37.86;101735.53;5010652;28;20580;-75
2022/03/13 11:28:05;;;;;;;19.10;9.55;;;;;;;6.41;37.55;101737.59;5008956;28;20358;-75
2022/03/13 11:30:34;;;;;;;15.77;10.07;;;;;;;6.48;38.68;101749.16;5003247;28;20029;-75